sensor_id;sensor_type;location;lat;lon;timestamp;temperature;humidity
13488;DHT22;6816;48.506;9.050;2023-04-03T00:00:36;7.30;99.90
13488;DHT22;6816;48.506;9.050;2023-04-03T00:03:36;7.30;99.90
13488;DHT22;6816;48.506;9.050;2023-04-03T00:06:37;7.30;99.90
13488;DHT22;6816;48.506;9.050;2023-04-03T00:09:38;7.30;99.90
13488;DHT22;6816;48.506;9.050;2023-04-03T00:12:38;7.30;99.90
13488;DHT22;6816;48.506;9.050;2023-04-03T00:15:39;7.30;99.90
13488;DHT22;6816;48.506;9.050;2023-04-03T00:18:40;7.20;99.90
13488;DHT22;6816;48.506;9.050;2023-04-03T00:21:41;7.20;99.90
13488;DHT22;6816;48.506;9.050;2023-04-03T00:24:41;7.20;99.90
13488;DHT22;6816;48.506;9.050;2023-04-03T00:27:42;7.20;99.90
13488;DHT22;6816;48.506;9.050;2023-04-03T00:30:43;7.20;99.90
13488;DHT22;6816;48.506;9.050;2023-04-03T00:33:43;7.20;99.90
13488;DHT22;6816;48.506;9.050;2023-04-03T00:36:44;7.20;99.90
13488;DHT22;6816;48.506;9.050;2023-04-03T00:39:45;7.40;99.90
13488;DHT22;6816;48.506;9.050;2023-04-03T00:42:47;7.30;99.90
13488;DHT22;6816;48.506;9.050;2023-04-03T00:45:51;7.20;99.90
13488;DHT22;6816;48.506;9.050;2023-04-03T00:48:52;7.10;99.90
13488;DHT22;6816;48.506;9.050;2023-04-03T00:51:53;7.10;99.90
13488;DHT22;6816;48.506;9.050;2023-04-03T00:54:57;7.10;99.90
13488;DHT22;6816;48.506;9.050;2023-04-03T00:58:01;7.10;99.90
13488;DHT22;6816;48.506;9.050;2023-04-03T01:01:06;7.10;99.90
13488;DHT22;6816;48.506;9.050;2023-04-03T01:04:31;7.20;99.90
13488;DHT22;6816;48.506;9.050;2023-04-03T01:07:33;7.10;99.60
13488;DHT22;6816;48.506;9.050;2023-04-03T01:10:37;7.00;99.90
13488;DHT22;6816;48.506;9.050;2023-04-03T01:13:38;7.00;99.90
13488;DHT22;6816;48.506;9.050;2023-04-03T01:16:38;7.10;99.90
13488;DHT22;6816;48.506;9.050;2023-04-03T01:19:42;7.00;99.90
13488;DHT22;6816;48.506;9.050;2023-04-03T01:26:08;7.00;99.70
13488;DHT22;6816;48.506;9.050;2023-04-03T01:29:10;7.00;99.90
13488;DHT22;6816;48.506;9.050;2023-04-03T01:32:11;7.00;99.90
13488;DHT22;6816;48.506;9.050;2023-04-03T01:35:12;7.00;99.90
13488;DHT22;6816;48.506;9.050;2023-04-03T01:38:13;7.00;99.90
13488;DHT22;6816;48.506;9.050;2023-04-03T01:41:14;6.90;99.90
13488;DHT22;6816;48.506;9.050;2023-04-03T01:44:16;7.00;99.90
13488;DHT22;6816;48.506;9.050;2023-04-03T01:47:17;6.90;99.90
13488;DHT22;6816;48.506;9.050;2023-04-03T01:50:17;7.00;99.90
13488;DHT22;6816;48.506;9.050;2023-04-03T01:53:18;6.90;99.90
13488;DHT22;6816;48.506;9.050;2023-04-03T01:56:19;6.90;99.90
13488;DHT22;6816;48.506;9.050;2023-04-03T01:59:20;6.80;99.90
13488;DHT22;6816;48.506;9.050;2023-04-03T02:02:21;6.80;99.90
13488;DHT22;6816;48.506;9.050;2023-04-03T02:05:21;6.80;99.90
13488;DHT22;6816;48.506;9.050;2023-04-03T02:08:22;6.80;99.90
13488;DHT22;6816;48.506;9.050;2023-04-03T02:11:22;6.80;99.90
13488;DHT22;6816;48.506;9.050;2023-04-03T02:14:23;6.80;99.90
13488;DHT22;6816;48.506;9.050;2023-04-03T02:17:24;6.70;99.90
13488;DHT22;6816;48.506;9.050;2023-04-03T02:20:25;6.70;99.90
13488;DHT22;6816;48.506;9.050;2023-04-03T02:23:26;6.70;99.90
13488;DHT22;6816;48.506;9.050;2023-04-03T02:26:27;6.60;99.90
13488;DHT22;6816;48.506;9.050;2023-04-03T02:29:27;6.60;99.90
13488;DHT22;6816;48.506;9.050;2023-04-03T02:32:28;6.60;99.90
13488;DHT22;6816;48.506;9.050;2023-04-03T02:35:28;6.60;99.90
13488;DHT22;6816;48.506;9.050;2023-04-03T02:38:29;6.60;99.90
13488;DHT22;6816;48.506;9.050;2023-04-03T02:41:30;6.60;99.90
13488;DHT22;6816;48.506;9.050;2023-04-03T02:44:35;6.60;99.90
13488;DHT22;6816;48.506;9.050;2023-04-03T02:47:36;6.50;99.90
13488;DHT22;6816;48.506;9.050;2023-04-03T02:50:36;6.60;99.90
13488;DHT22;6816;48.506;9.050;2023-04-03T02:53:37;6.50;99.90
13488;DHT22;6816;48.506;9.050;2023-04-03T02:56:38;6.50;99.90
13488;DHT22;6816;48.506;9.050;2023-04-03T02:59:38;6.50;99.90
13488;DHT22;6816;48.506;9.050;2023-04-03T03:02:42;6.60;99.90
13488;DHT22;6816;48.506;9.050;2023-04-03T03:05:42;6.60;99.90
13488;DHT22;6816;48.506;9.050;2023-04-03T03:08:43;6.50;99.90
13488;DHT22;6816;48.506;9.050;2023-04-03T03:11:44;6.50;99.90
13488;DHT22;6816;48.506;9.050;2023-04-03T03:14:45;6.50;99.90
13488;DHT22;6816;48.506;9.050;2023-04-03T03:17:45;6.50;99.90
13488;DHT22;6816;48.506;9.050;2023-04-03T03:20:46;6.50;99.90
13488;DHT22;6816;48.506;9.050;2023-04-03T03:23:47;6.50;99.90
13488;DHT22;6816;48.506;9.050;2023-04-03T03:26:47;6.40;99.90
13488;DHT22;6816;48.506;9.050;2023-04-03T03:29:48;6.40;99.90
13488;DHT22;6816;48.506;9.050;2023-04-03T03:32:49;6.40;99.90
13488;DHT22;6816;48.506;9.050;2023-04-03T03:35:49;6.40;99.90
13488;DHT22;6816;48.506;9.050;2023-04-03T03:38:50;6.40;99.90
13488;DHT22;6816;48.506;9.050;2023-04-03T03:41:51;6.40;99.90
13488;DHT22;6816;48.506;9.050;2023-04-03T03:44:53;6.40;99.90
13488;DHT22;6816;48.506;9.050;2023-04-03T03:47:54;6.40;99.90
13488;DHT22;6816;48.506;9.050;2023-04-03T03:50:55;6.40;99.90
13488;DHT22;6816;48.506;9.050;2023-04-03T03:53:55;6.40;99.90
13488;DHT22;6816;48.506;9.050;2023-04-03T03:56:56;6.30;99.90
13488;DHT22;6816;48.506;9.050;2023-04-03T03:59:56;6.30;99.90
13488;DHT22;6816;48.506;9.050;2023-04-03T04:02:57;6.30;99.90
13488;DHT22;6816;48.506;9.050;2023-04-03T04:05:58;6.30;99.90
13488;DHT22;6816;48.506;9.050;2023-04-03T04:08:58;6.30;99.90
13488;DHT22;6816;48.506;9.050;2023-04-03T04:11:59;6.40;99.90
13488;DHT22;6816;48.506;9.050;2023-04-03T04:15:00;6.30;99.90
13488;DHT22;6816;48.506;9.050;2023-04-03T04:18:00;6.30;99.90
13488;DHT22;6816;48.506;9.050;2023-04-03T04:21:01;6.30;99.90
13488;DHT22;6816;48.506;9.050;2023-04-03T04:24:01;6.30;99.90
13488;DHT22;6816;48.506;9.050;2023-04-03T04:27:02;6.30;99.90
13488;DHT22;6816;48.506;9.050;2023-04-03T04:30:03;6.30;99.90
13488;DHT22;6816;48.506;9.050;2023-04-03T04:33:05;6.30;99.90
13488;DHT22;6816;48.506;9.050;2023-04-03T04:36:06;6.20;99.90
13488;DHT22;6816;48.506;9.050;2023-04-03T04:39:06;6.20;99.90
13488;DHT22;6816;48.506;9.050;2023-04-03T04:42:07;6.20;99.90
13488;DHT22;6816;48.506;9.050;2023-04-03T04:45:12;6.20;99.90
13488;DHT22;6816;48.506;9.050;2023-04-03T04:48:13;6.20;99.90
13488;DHT22;6816;48.506;9.050;2023-04-03T04:51:14;6.20;99.90
13488;DHT22;6816;48.506;9.050;2023-04-03T04:54:15;6.40;99.90
13488;DHT22;6816;48.506;9.050;2023-04-03T04:57:15;6.30;99.90
13488;DHT22;6816;48.506;9.050;2023-04-03T05:00:17;6.20;99.90
13488;DHT22;6816;48.506;9.050;2023-04-03T05:03:18;6.30;99.90
13488;DHT22;6816;48.506;9.050;2023-04-03T05:06:19;6.30;99.90
13488;DHT22;6816;48.506;9.050;2023-04-03T05:09:19;6.30;99.90
13488;DHT22;6816;48.506;9.050;2023-04-03T05:12:20;6.30;99.90
13488;DHT22;6816;48.506;9.050;2023-04-03T05:15:21;6.30;99.90
13488;DHT22;6816;48.506;9.050;2023-04-03T05:18:21;6.30;99.90
13488;DHT22;6816;48.506;9.050;2023-04-03T05:21:22;6.40;99.90
13488;DHT22;6816;48.506;9.050;2023-04-03T05:24:25;6.30;99.90
13488;DHT22;6816;48.506;9.050;2023-04-03T05:27:26;6.30;99.90
13488;DHT22;6816;48.506;9.050;2023-04-03T05:30:28;6.40;99.90
13488;DHT22;6816;48.506;9.050;2023-04-03T05:33:30;6.40;99.90
13488;DHT22;6816;48.506;9.050;2023-04-03T05:36:31;6.40;99.90
13488;DHT22;6816;48.506;9.050;2023-04-03T05:39:32;6.50;99.90
13488;DHT22;6816;48.506;9.050;2023-04-03T05:42:32;6.50;99.90
13488;DHT22;6816;48.506;9.050;2023-04-03T05:45:33;6.50;99.90
13488;DHT22;6816;48.506;9.050;2023-04-03T05:48:34;6.50;99.90
13488;DHT22;6816;48.506;9.050;2023-04-03T05:51:36;6.40;99.90
13488;DHT22;6816;48.506;9.050;2023-04-03T05:54:37;6.50;99.90
13488;DHT22;6816;48.506;9.050;2023-04-03T05:57:37;6.50;99.90
13488;DHT22;6816;48.506;9.050;2023-04-03T06:00:38;6.60;99.90
13488;DHT22;6816;48.506;9.050;2023-04-03T06:03:39;6.50;99.90
13488;DHT22;6816;48.506;9.050;2023-04-03T06:06:52;6.60;99.90
13488;DHT22;6816;48.506;9.050;2023-04-03T06:09:54;6.60;98.90
13488;DHT22;6816;48.506;9.050;2023-04-03T06:12:55;6.60;99.90
13488;DHT22;6816;48.506;9.050;2023-04-03T06:15:56;6.70;99.90
13488;DHT22;6816;48.506;9.050;2023-04-03T06:18:57;6.70;99.90
13488;DHT22;6816;48.506;9.050;2023-04-03T06:21:58;6.80;99.90
13488;DHT22;6816;48.506;9.050;2023-04-03T06:24:59;6.80;99.90
13488;DHT22;6816;48.506;9.050;2023-04-03T06:27:59;6.80;99.90
13488;DHT22;6816;48.506;9.050;2023-04-03T06:31:01;6.80;99.90
13488;DHT22;6816;48.506;9.050;2023-04-03T06:34:02;7.00;99.90
13488;DHT22;6816;48.506;9.050;2023-04-03T06:37:03;7.00;99.90
13488;DHT22;6816;48.506;9.050;2023-04-03T06:40:04;7.00;99.90
13488;DHT22;6816;48.506;9.050;2023-04-03T06:43:04;7.10;99.90
13488;DHT22;6816;48.506;9.050;2023-04-03T06:46:05;7.10;99.90
13488;DHT22;6816;48.506;9.050;2023-04-03T06:49:06;7.10;99.90
13488;DHT22;6816;48.506;9.050;2023-04-03T06:52:08;7.20;99.90
13488;DHT22;6816;48.506;9.050;2023-04-03T06:55:12;7.20;99.90
13488;DHT22;6816;48.506;9.050;2023-04-03T06:58:13;7.20;99.90
13488;DHT22;6816;48.506;9.050;2023-04-03T07:01:17;7.30;99.90
13488;DHT22;6816;48.506;9.050;2023-04-03T07:04:19;7.30;99.90
13488;DHT22;6816;48.506;9.050;2023-04-03T07:07:22;7.30;99.90
13488;DHT22;6816;48.506;9.050;2023-04-03T07:10:23;7.30;99.90
13488;DHT22;6816;48.506;9.050;2023-04-03T07:13:24;7.30;99.90
13488;DHT22;6816;48.506;9.050;2023-04-03T07:16:24;7.40;99.90
13488;DHT22;6816;48.506;9.050;2023-04-03T07:19:25;7.40;99.90
13488;DHT22;6816;48.506;9.050;2023-04-03T07:22:28;7.50;99.90
13488;DHT22;6816;48.506;9.050;2023-04-03T07:25:29;7.50;99.90
13488;DHT22;6816;48.506;9.050;2023-04-03T07:28:30;7.60;99.90
13488;DHT22;6816;48.506;9.050;2023-04-03T07:31:31;7.70;99.90
13488;DHT22;6816;48.506;9.050;2023-04-03T07:34:32;7.80;99.90
13488;DHT22;6816;48.506;9.050;2023-04-03T07:37:32;7.90;99.90
13488;DHT22;6816;48.506;9.050;2023-04-03T07:40:34;8.20;99.90
13488;DHT22;6816;48.506;9.050;2023-04-03T07:43:35;8.10;99.90
13488;DHT22;6816;48.506;9.050;2023-04-03T07:46:36;8.20;99.90
13488;DHT22;6816;48.506;9.050;2023-04-03T07:49:37;8.30;99.90
13488;DHT22;6816;48.506;9.050;2023-04-03T07:52:40;8.40;99.90
13488;DHT22;6816;48.506;9.050;2023-04-03T07:55:41;8.50;99.90
13488;DHT22;6816;48.506;9.050;2023-04-03T07:58:45;8.70;99.90
13488;DHT22;6816;48.506;9.050;2023-04-03T08:01:45;8.80;99.90
13488;DHT22;6816;48.506;9.050;2023-04-03T08:04:46;8.90;99.90
13488;DHT22;6816;48.506;9.050;2023-04-03T08:07:47;9.10;99.90
13488;DHT22;6816;48.506;9.050;2023-04-03T08:10:52;9.20;99.90
13488;DHT22;6816;48.506;9.050;2023-04-03T08:13:53;9.30;99.90
13488;DHT22;6816;48.506;9.050;2023-04-03T08:16:54;9.30;99.90
13488;DHT22;6816;48.506;9.050;2023-04-03T08:19:54;9.40;99.90
13488;DHT22;6816;48.506;9.050;2023-04-03T08:22:55;9.40;99.90
13488;DHT22;6816;48.506;9.050;2023-04-03T08:25:55;9.50;99.90
13488;DHT22;6816;48.506;9.050;2023-04-03T08:28:56;9.50;99.90
13488;DHT22;6816;48.506;9.050;2023-04-03T08:31:57;9.60;99.90
13488;DHT22;6816;48.506;9.050;2023-04-03T08:34:57;9.70;99.90
13488;DHT22;6816;48.506;9.050;2023-04-03T08:37:58;9.80;99.90
13488;DHT22;6816;48.506;9.050;2023-04-03T08:48:00;10.00;96.30
13488;DHT22;6816;48.506;9.050;2023-04-03T08:51:03;10.00;97.50
13488;DHT22;6816;48.506;9.050;2023-04-03T08:54:18;10.10;98.30
13488;DHT22;6816;48.506;9.050;2023-04-03T08:57:33;10.10;97.00
13488;DHT22;6816;48.506;9.050;2023-04-03T09:00:44;10.10;96.50
13488;DHT22;6816;48.506;9.050;2023-04-03T09:03:46;10.10;97.10
13488;DHT22;6816;48.506;9.050;2023-04-03T09:06:53;10.10;98.80
13488;DHT22;6816;48.506;9.050;2023-04-03T09:09:55;10.10;96.80
13488;DHT22;6816;48.506;9.050;2023-04-03T09:13:04;10.20;98.70
13488;DHT22;6816;48.506;9.050;2023-04-03T09:16:24;10.20;97.90
13488;DHT22;6816;48.506;9.050;2023-04-03T09:22:33;10.40;97.70
13488;DHT22;6816;48.506;9.050;2023-04-03T09:25:38;10.50;99.20
13488;DHT22;6816;48.506;9.050;2023-04-03T09:28:39;10.60;99.20
13488;DHT22;6816;48.506;9.050;2023-04-03T09:31:44;10.70;98.90
13488;DHT22;6816;48.506;9.050;2023-04-03T09:34:47;10.80;98.70
13488;DHT22;6816;48.506;9.050;2023-04-03T09:37:53;10.90;98.90
13488;DHT22;6816;48.506;9.050;2023-04-03T09:41:13;11.00;97.80
13488;DHT22;6816;48.506;9.050;2023-04-03T09:44:24;11.00;95.10
13488;DHT22;6816;48.506;9.050;2023-04-03T09:47:27;11.10;95.50
13488;DHT22;6816;48.506;9.050;2023-04-03T09:50:28;11.10;96.30
13488;DHT22;6816;48.506;9.050;2023-04-03T09:53:41;11.20;97.30
13488;DHT22;6816;48.506;9.050;2023-04-03T09:56:49;11.00;94.30
13488;DHT22;6816;48.506;9.050;2023-04-03T09:59:59;11.00;94.50
13488;DHT22;6816;48.506;9.050;2023-04-03T10:03:01;11.00;94.50
13488;DHT22;6816;48.506;9.050;2023-04-03T10:06:03;11.00;96.50
13488;DHT22;6816;48.506;9.050;2023-04-03T10:09:15;10.90;96.10
13488;DHT22;6816;48.506;9.050;2023-04-03T10:12:19;10.90;96.20
13488;DHT22;6816;48.506;9.050;2023-04-03T10:15:20;10.90;95.60
13488;DHT22;6816;48.506;9.050;2023-04-03T10:24:50;11.00;94.30
13488;DHT22;6816;48.506;9.050;2023-04-03T10:28:01;11.00;96.50
13488;DHT22;6816;48.506;9.050;2023-04-03T10:37:49;11.10;93.60
13488;DHT22;6816;48.506;9.050;2023-04-03T10:40:57;11.20;94.70
13488;DHT22;6816;48.506;9.050;2023-04-03T10:57:10;11.50;94.40
13488;DHT22;6816;48.506;9.050;2023-04-03T11:01:02;11.50;94.30
13488;DHT22;6816;48.506;9.050;2023-04-03T11:03:46;11.40;94.30
13488;DHT22;6816;48.506;9.050;2023-04-03T11:07:00;11.40;93.80
13488;DHT22;6816;48.506;9.050;2023-04-03T11:14:05;11.40;91.70
13488;DHT22;6816;48.506;9.050;2023-04-03T11:20:28;11.40;93.20
13488;DHT22;6816;48.506;9.050;2023-04-03T11:23:38;11.40;95.80
13488;DHT22;6816;48.506;9.050;2023-04-03T11:26:41;11.50;94.30
13488;DHT22;6816;48.506;9.050;2023-04-03T11:29:43;11.60;95.00
13488;DHT22;6816;48.506;9.050;2023-04-03T11:36:32;11.60;93.80
13488;DHT22;6816;48.506;9.050;2023-04-03T11:39:35;11.70;92.90
13488;DHT22;6816;48.506;9.050;2023-04-03T11:45:59;11.70;94.80
13488;DHT22;6816;48.506;9.050;2023-04-03T11:49:01;11.70;92.80
13488;DHT22;6816;48.506;9.050;2023-04-03T11:52:01;11.70;94.60
13488;DHT22;6816;48.506;9.050;2023-04-03T11:55:35;11.60;94.00
13488;DHT22;6816;48.506;9.050;2023-04-03T11:58:32;11.50;93.90
13488;DHT22;6816;48.506;9.050;2023-04-03T12:01:44;11.50;92.00
13488;DHT22;6816;48.506;9.050;2023-04-03T12:05:24;11.50;92.00
13488;DHT22;6816;48.506;9.050;2023-04-03T12:08:34;11.50;91.60
13488;DHT22;6816;48.506;9.050;2023-04-03T12:11:43;11.50;94.70
13488;DHT22;6816;48.506;9.050;2023-04-03T12:14:44;11.50;94.70
13488;DHT22;6816;48.506;9.050;2023-04-03T12:17:45;11.50;94.60
13488;DHT22;6816;48.506;9.050;2023-04-03T12:30:26;11.40;92.20
13488;DHT22;6816;48.506;9.050;2023-04-03T12:33:37;11.40;93.60
13488;DHT22;6816;48.506;9.050;2023-04-03T12:40:06;11.30;94.30
13488;DHT22;6816;48.506;9.050;2023-04-03T12:43:28;11.30;91.90
13488;DHT22;6816;48.506;9.050;2023-04-03T12:46:38;11.30;91.40
13488;DHT22;6816;48.506;9.050;2023-04-03T12:49:42;11.30;92.10
13488;DHT22;6816;48.506;9.050;2023-04-03T12:52:49;11.30;93.80
13488;DHT22;6816;48.506;9.050;2023-04-03T12:56:18;11.40;93.80
13488;DHT22;6816;48.506;9.050;2023-04-03T12:59:21;11.30;93.20
13488;DHT22;6816;48.506;9.050;2023-04-03T13:02:29;11.40;93.10
13488;DHT22;6816;48.506;9.050;2023-04-03T13:05:32;11.40;91.90
13488;DHT22;6816;48.506;9.050;2023-04-03T13:08:33;11.40;93.80
13488;DHT22;6816;48.506;9.050;2023-04-03T13:11:37;11.40;93.60
13488;DHT22;6816;48.506;9.050;2023-04-03T13:14:39;11.40;92.70
13488;DHT22;6816;48.506;9.050;2023-04-03T13:17:44;11.50;93.30
13488;DHT22;6816;48.506;9.050;2023-04-03T13:20:48;11.40;92.70
13488;DHT22;6816;48.506;9.050;2023-04-03T13:23:51;11.50;93.50
13488;DHT22;6816;48.506;9.050;2023-04-03T13:26:53;11.50;93.50
13488;DHT22;6816;48.506;9.050;2023-04-03T13:29:57;11.60;94.20
13488;DHT22;6816;48.506;9.050;2023-04-03T13:33:02;11.60;93.30
13488;DHT22;6816;48.506;9.050;2023-04-03T13:36:19;11.70;93.70
13488;DHT22;6816;48.506;9.050;2023-04-03T13:39:24;11.70;91.80
13488;DHT22;6816;48.506;9.050;2023-04-03T13:42:29;11.70;92.60
13488;DHT22;6816;48.506;9.050;2023-04-03T13:45:32;11.70;92.70
13488;DHT22;6816;48.506;9.050;2023-04-03T13:48:43;11.70;93.10
13488;DHT22;6816;48.506;9.050;2023-04-03T13:51:44;11.60;92.10
13488;DHT22;6816;48.506;9.050;2023-04-03T13:54:46;11.60;93.30
13488;DHT22;6816;48.506;9.050;2023-04-03T13:58:00;11.60;92.30
13488;DHT22;6816;48.506;9.050;2023-04-03T14:01:20;11.60;91.30
13488;DHT22;6816;48.506;9.050;2023-04-03T14:04:25;11.60;90.80
13488;DHT22;6816;48.506;9.050;2023-04-03T14:07:29;11.60;92.50
13488;DHT22;6816;48.506;9.050;2023-04-03T14:10:31;11.70;92.80
13488;DHT22;6816;48.506;9.050;2023-04-03T14:13:32;11.70;93.00
13488;DHT22;6816;48.506;9.050;2023-04-03T14:16:38;11.60;92.80
13488;DHT22;6816;48.506;9.050;2023-04-03T14:19:40;11.60;91.30
13488;DHT22;6816;48.506;9.050;2023-04-03T14:22:41;11.50;92.40
13488;DHT22;6816;48.506;9.050;2023-04-03T14:25:42;11.70;92.80
13488;DHT22;6816;48.506;9.050;2023-04-03T14:28:44;11.40;92.90
13488;DHT22;6816;48.506;9.050;2023-04-03T14:31:46;11.40;92.40
13488;DHT22;6816;48.506;9.050;2023-04-03T14:34:47;11.40;92.80
13488;DHT22;6816;48.506;9.050;2023-04-03T14:37:49;11.50;92.90
13488;DHT22;6816;48.506;9.050;2023-04-03T14:40:51;11.40;92.70
13488;DHT22;6816;48.506;9.050;2023-04-03T14:43:52;11.40;92.80
13488;DHT22;6816;48.506;9.050;2023-04-03T14:46:53;11.50;92.40
13488;DHT22;6816;48.506;9.050;2023-04-03T14:49:54;11.50;92.50
13488;DHT22;6816;48.506;9.050;2023-04-03T14:52:57;11.40;92.40
13488;DHT22;6816;48.506;9.050;2023-04-03T14:55:58;11.40;92.00
13488;DHT22;6816;48.506;9.050;2023-04-03T14:59:00;11.50;92.70
13488;DHT22;6816;48.506;9.050;2023-04-03T15:02:01;11.40;92.20
13488;DHT22;6816;48.506;9.050;2023-04-03T15:05:05;11.30;92.20
13488;DHT22;6816;48.506;9.050;2023-04-03T15:08:20;11.30;91.60
13488;DHT22;6816;48.506;9.050;2023-04-03T15:11:21;11.20;91.40
13488;DHT22;6816;48.506;9.050;2023-04-03T15:14:22;11.10;92.00
13488;DHT22;6816;48.506;9.050;2023-04-03T15:17:23;11.00;91.70
13488;DHT22;6816;48.506;9.050;2023-04-03T15:20:25;11.00;91.90
13488;DHT22;6816;48.506;9.050;2023-04-03T15:23:26;10.90;91.80
13488;DHT22;6816;48.506;9.050;2023-04-03T15:26:29;10.80;92.10
13488;DHT22;6816;48.506;9.050;2023-04-03T15:29:29;10.80;92.10
13488;DHT22;6816;48.506;9.050;2023-04-03T15:32:30;10.80;91.70
13488;DHT22;6816;48.506;9.050;2023-04-03T15:35:31;10.80;92.60
13488;DHT22;6816;48.506;9.050;2023-04-03T15:38:32;10.80;92.40
13488;DHT22;6816;48.506;9.050;2023-04-03T15:41:32;10.80;92.70
13488;DHT22;6816;48.506;9.050;2023-04-03T15:44:34;10.80;92.20
13488;DHT22;6816;48.506;9.050;2023-04-03T15:47:35;10.80;92.10
13488;DHT22;6816;48.506;9.050;2023-04-03T15:50:35;10.80;92.40
13488;DHT22;6816;48.506;9.050;2023-04-03T15:53:36;10.80;92.40
13488;DHT22;6816;48.506;9.050;2023-04-03T15:56:37;10.90;92.10
13488;DHT22;6816;48.506;9.050;2023-04-03T15:59:37;10.70;92.00
13488;DHT22;6816;48.506;9.050;2023-04-03T16:02:38;10.60;91.40
13488;DHT22;6816;48.506;9.050;2023-04-03T16:05:39;10.60;91.70
13488;DHT22;6816;48.506;9.050;2023-04-03T16:08:41;10.50;91.60
13488;DHT22;6816;48.506;9.050;2023-04-03T16:11:41;10.50;91.90
13488;DHT22;6816;48.506;9.050;2023-04-03T16:14:43;10.40;92.30
13488;DHT22;6816;48.506;9.050;2023-04-03T16:17:44;10.50;92.20
13488;DHT22;6816;48.506;9.050;2023-04-03T16:20:45;10.40;92.20
13488;DHT22;6816;48.506;9.050;2023-04-03T16:23:46;10.40;92.10
13488;DHT22;6816;48.506;9.050;2023-04-03T16:26:47;10.40;92.10
13488;DHT22;6816;48.506;9.050;2023-04-03T16:29:47;10.30;92.00
13488;DHT22;6816;48.506;9.050;2023-04-03T16:32:48;10.30;91.90
13488;DHT22;6816;48.506;9.050;2023-04-03T16:35:50;10.30;92.00
13488;DHT22;6816;48.506;9.050;2023-04-03T16:38:51;10.20;91.90
13488;DHT22;6816;48.506;9.050;2023-04-03T16:41:51;10.20;91.90
13488;DHT22;6816;48.506;9.050;2023-04-03T16:44:52;10.20;92.00
13488;DHT22;6816;48.506;9.050;2023-04-03T16:47:53;10.10;91.90
13488;DHT22;6816;48.506;9.050;2023-04-03T16:50:53;10.10;91.90
13488;DHT22;6816;48.506;9.050;2023-04-03T16:53:54;10.10;92.10
13488;DHT22;6816;48.506;9.050;2023-04-03T16:56:55;10.10;92.00
13488;DHT22;6816;48.506;9.050;2023-04-03T16:59:55;10.00;91.80
13488;DHT22;6816;48.506;9.050;2023-04-03T17:02:56;9.90;91.60
13488;DHT22;6816;48.506;9.050;2023-04-03T17:05:57;9.90;92.30
13488;DHT22;6816;48.506;9.050;2023-04-03T17:08:57;9.80;91.70
13488;DHT22;6816;48.506;9.050;2023-04-03T17:11:58;9.80;91.60
13488;DHT22;6816;48.506;9.050;2023-04-03T17:14:59;9.70;91.60
13488;DHT22;6816;48.506;9.050;2023-04-03T17:17:59;9.60;91.50
13488;DHT22;6816;48.506;9.050;2023-04-03T17:21:01;9.60;91.70
13488;DHT22;6816;48.506;9.050;2023-04-03T17:24:03;9.50;91.40
13488;DHT22;6816;48.506;9.050;2023-04-03T17:27:08;9.40;91.10
13488;DHT22;6816;48.506;9.050;2023-04-03T17:30:09;9.40;91.40
13488;DHT22;6816;48.506;9.050;2023-04-03T17:33:10;9.30;91.20
13488;DHT22;6816;48.506;9.050;2023-04-03T17:36:11;9.20;91.20
13488;DHT22;6816;48.506;9.050;2023-04-03T17:39:12;9.20;91.50
13488;DHT22;6816;48.506;9.050;2023-04-03T17:42:13;9.00;91.50
13488;DHT22;6816;48.506;9.050;2023-04-03T17:45:13;9.00;91.70
13488;DHT22;6816;48.506;9.050;2023-04-03T17:48:14;8.90;91.50
13488;DHT22;6816;48.506;9.050;2023-04-03T17:51:18;8.90;91.60
13488;DHT22;6816;48.506;9.050;2023-04-03T17:54:20;8.90;91.10
13488;DHT22;6816;48.506;9.050;2023-04-03T17:57:20;8.80;91.60
13488;DHT22;6816;48.506;9.050;2023-04-03T18:00:21;8.80;91.90
13488;DHT22;6816;48.506;9.050;2023-04-03T18:03:22;8.80;91.80
13488;DHT22;6816;48.506;9.050;2023-04-03T18:06:26;8.70;91.80
13488;DHT22;6816;48.506;9.050;2023-04-03T18:09:31;8.70;90.90
13488;DHT22;6816;48.506;9.050;2023-04-03T18:12:32;8.60;91.10
13488;DHT22;6816;48.506;9.050;2023-04-03T18:15:32;8.60;91.40
13488;DHT22;6816;48.506;9.050;2023-04-03T18:18:33;8.50;91.20
13488;DHT22;6816;48.506;9.050;2023-04-03T18:21:35;8.50;91.20
13488;DHT22;6816;48.506;9.050;2023-04-03T18:24:36;8.30;91.10
13488;DHT22;6816;48.506;9.050;2023-04-03T18:27:36;8.20;91.20
13488;DHT22;6816;48.506;9.050;2023-04-03T18:30:37;8.20;91.30
13488;DHT22;6816;48.506;9.050;2023-04-03T18:33:38;8.20;91.40
13488;DHT22;6816;48.506;9.050;2023-04-03T18:36:39;8.00;91.30
13488;DHT22;6816;48.506;9.050;2023-04-03T18:39:40;8.00;91.40
13488;DHT22;6816;48.506;9.050;2023-04-03T18:42:41;7.90;91.60
13488;DHT22;6816;48.506;9.050;2023-04-03T18:45:42;7.80;91.40
13488;DHT22;6816;48.506;9.050;2023-04-03T18:48:43;7.80;91.50
13488;DHT22;6816;48.506;9.050;2023-04-03T18:51:45;7.80;91.60
13488;DHT22;6816;48.506;9.050;2023-04-03T18:54:46;7.60;91.20
13488;DHT22;6816;48.506;9.050;2023-04-03T18:57:47;7.50;91.20
13488;DHT22;6816;48.506;9.050;2023-04-03T19:00:49;7.50;91.20
13488;DHT22;6816;48.506;9.050;2023-04-03T19:03:49;7.40;91.40
13488;DHT22;6816;48.506;9.050;2023-04-03T19:06:51;7.30;91.50
13488;DHT22;6816;48.506;9.050;2023-04-03T19:09:52;7.30;91.40
13488;DHT22;6816;48.506;9.050;2023-04-03T19:12:54;7.20;91.70
13488;DHT22;6816;48.506;9.050;2023-04-03T19:15:55;7.20;91.90
13488;DHT22;6816;48.506;9.050;2023-04-03T19:18:59;7.10;91.90
13488;DHT22;6816;48.506;9.050;2023-04-03T19:21:59;7.10;91.90
13488;DHT22;6816;48.506;9.050;2023-04-03T19:25:00;7.10;92.00
13488;DHT22;6816;48.506;9.050;2023-04-03T19:28:01;7.10;92.10
13488;DHT22;6816;48.506;9.050;2023-04-03T19:31:02;7.10;92.30
13488;DHT22;6816;48.506;9.050;2023-04-03T19:34:04;7.10;92.50
13488;DHT22;6816;48.506;9.050;2023-04-03T19:37:05;7.20;92.40
13488;DHT22;6816;48.506;9.050;2023-04-03T19:40:07;7.20;92.80
13488;DHT22;6816;48.506;9.050;2023-04-03T19:43:12;7.20;92.40
13488;DHT22;6816;48.506;9.050;2023-04-03T19:46:13;7.20;91.80
13488;DHT22;6816;48.506;9.050;2023-04-03T19:49:14;7.30;92.40
13488;DHT22;6816;48.506;9.050;2023-04-03T19:52:15;7.30;92.40
13488;DHT22;6816;48.506;9.050;2023-04-03T19:55:16;7.30;92.10
13488;DHT22;6816;48.506;9.050;2023-04-03T19:58:16;7.20;92.40
13488;DHT22;6816;48.506;9.050;2023-04-03T20:01:17;7.40;92.50
13488;DHT22;6816;48.506;9.050;2023-04-03T20:04:18;7.20;92.40
13488;DHT22;6816;48.506;9.050;2023-04-03T20:07:18;7.20;92.40
13488;DHT22;6816;48.506;9.050;2023-04-03T20:10:19;7.20;92.30
13488;DHT22;6816;48.506;9.050;2023-04-03T20:13:20;7.20;92.40
13488;DHT22;6816;48.506;9.050;2023-04-03T20:16:21;7.20;92.50
13488;DHT22;6816;48.506;9.050;2023-04-03T20:19:24;7.50;92.40
13488;DHT22;6816;48.506;9.050;2023-04-03T20:22:28;7.20;92.30
13488;DHT22;6816;48.506;9.050;2023-04-03T20:25:29;7.20;92.30
13488;DHT22;6816;48.506;9.050;2023-04-03T20:28:31;7.20;92.20
13488;DHT22;6816;48.506;9.050;2023-04-03T20:31:31;7.30;92.00
13488;DHT22;6816;48.506;9.050;2023-04-03T20:34:32;7.30;92.00
13488;DHT22;6816;48.506;9.050;2023-04-03T20:37:34;7.10;92.10
13488;DHT22;6816;48.506;9.050;2023-04-03T20:40:35;7.10;92.30
13488;DHT22;6816;48.506;9.050;2023-04-03T20:43:36;7.10;92.20
13488;DHT22;6816;48.506;9.050;2023-04-03T20:46:39;7.10;92.30
13488;DHT22;6816;48.506;9.050;2023-04-03T20:49:39;7.00;92.30